createdAt,value
2022-10-12T00:02:09.062Z,4.41
2022-10-12T00:04:37.045Z,4.38
2022-10-12T00:07:06.176Z,4.34
2022-10-12T00:09:33.983Z,4.32
2022-10-12T00:12:01.749Z,4.36
2022-10-12T00:14:29.557Z,4.38
2022-10-12T00:16:58.091Z,4.29
2022-10-12T00:19:25.883Z,4.25
2022-10-12T00:21:53.689Z,4.33
2022-10-12T00:24:22.813Z,4.36
2022-10-12T00:26:51.118Z,4.45
2022-10-12T00:29:19.137Z,4.58
2022-10-12T00:31:46.951Z,4.40
2022-10-12T00:34:14.742Z,4.31
2022-10-12T00:36:43.226Z,4.32
2022-10-12T00:39:11.654Z,4.27
2022-10-12T00:41:41.715Z,4.34
2022-10-12T00:44:27.881Z,4.22
2022-10-12T00:46:57.798Z,4.15
2022-10-12T00:49:26.789Z,4.11
2022-10-12T00:51:57.830Z,4.07
2022-10-12T00:54:27.490Z,4.05
2022-10-12T00:56:57.694Z,4.10
2022-10-12T00:59:29.380Z,4.09
2022-10-12T01:01:57.461Z,4.17
2022-10-12T01:04:25.605Z,4.12
2022-10-12T01:06:53.686Z,4.09
2022-10-12T01:09:22.017Z,4.06
2022-10-12T01:11:49.994Z,4.08
2022-10-12T01:14:19.334Z,4.02
2022-10-12T01:16:51.818Z,3.97
2022-10-12T01:19:28.242Z,4.02
2022-10-12T01:22:00.126Z,4.05
2022-10-12T01:24:49.000Z,4.05
2022-10-12T01:27:25.651Z,4.04
2022-10-12T01:30:18.526Z,3.99
2022-10-12T01:33:19.471Z,3.98
2022-10-12T01:35:52.872Z,4.01
2022-10-12T01:38:37.318Z,4.02
2022-10-12T01:41:07.992Z,3.99
2022-10-12T01:43:36.571Z,4.06
2022-10-12T01:46:22.242Z,4.02
2022-10-12T01:48:54.754Z,4.03
2022-10-12T01:51:26.393Z,4.04
2022-10-12T01:53:58.707Z,4.03
2022-10-12T01:56:30.257Z,3.97
2022-10-12T01:59:02.957Z,3.98
2022-10-12T02:01:34.277Z,3.94
2022-10-12T02:04:07.703Z,3.91
2022-10-12T02:06:37.752Z,3.90
2022-10-12T02:09:09.043Z,3.85
2022-10-12T02:11:38.825Z,3.84
2022-10-12T02:14:09.453Z,3.90
2022-10-12T02:16:40.624Z,3.88
2022-10-12T02:19:11.774Z,3.84
2022-10-12T02:21:40.366Z,3.76
2022-10-12T02:24:10.754Z,3.76
2022-10-12T02:26:39.970Z,3.80
2022-10-12T02:29:11.227Z,3.83
2022-10-12T02:31:43.819Z,3.83
2022-10-12T02:34:15.852Z,3.80
2022-10-12T02:36:46.921Z,3.77
2022-10-12T02:39:17.353Z,3.78
2022-10-12T02:41:47.719Z,3.86
2022-10-12T02:44:17.084Z,3.76
2022-10-12T02:46:46.580Z,3.70
2022-10-12T02:49:16.601Z,3.70
2022-10-12T02:51:45.103Z,3.68
2022-10-12T02:54:13.484Z,3.64
2022-10-12T02:56:43.731Z,3.61
2022-10-12T02:59:11.525Z,3.56
2022-10-12T03:01:39.369Z,3.55
2022-10-12T03:04:07.351Z,3.54
2022-10-12T03:06:36.640Z,3.49
2022-10-12T03:09:05.257Z,3.51
2022-10-12T03:11:33.049Z,3.52
2022-10-12T03:14:01.033Z,3.54
2022-10-12T03:16:29.017Z,3.51
2022-10-12T03:18:56.760Z,3.53
2022-10-12T03:21:24.561Z,3.55
2022-10-12T03:23:53.839Z,3.54
2022-10-12T03:26:22.892Z,3.47
2022-10-12T03:28:51.106Z,3.42
2022-10-12T03:31:19.056Z,3.35
2022-10-12T03:33:46.889Z,3.30
2022-10-12T03:36:14.831Z,3.27
2022-10-12T03:38:42.620Z,3.27
2022-10-12T03:41:11.978Z,3.25
2022-10-12T03:43:39.784Z,3.22
2022-10-12T03:46:07.625Z,3.21
2022-10-12T03:48:35.415Z,3.21
2022-10-12T03:51:03.354Z,3.20
2022-10-12T03:53:31.458Z,3.17
2022-10-12T03:55:59.200Z,3.12
2022-10-12T03:58:28.317Z,3.12
2022-10-12T04:00:56.368Z,3.14
2022-10-12T04:03:26.073Z,3.12
2022-10-12T04:06:03.168Z,3.16
2022-10-12T04:08:31.044Z,3.17
2022-10-12T04:11:01.914Z,3.13
2022-10-12T04:13:31.827Z,3.13
2022-10-12T04:16:02.480Z,3.09
2022-10-12T04:18:30.846Z,3.14
2022-10-12T04:20:58.630Z,3.14
2022-10-12T04:23:26.487Z,3.15
2022-10-12T04:25:54.433Z,3.20
2022-10-12T04:28:22.306Z,3.28
2022-10-12T04:30:51.636Z,3.45
2022-10-12T04:33:19.435Z,3.49
2022-10-12T04:35:47.226Z,3.54
2022-10-12T04:38:15.137Z,3.58
2022-10-12T04:40:46.687Z,3.71
2022-10-12T04:43:14.737Z,3.79
2022-10-12T04:45:42.581Z,3.84
2022-10-12T04:48:11.780Z,3.87
2022-10-12T04:50:39.671Z,3.94
2022-10-12T04:53:07.495Z,3.96
2022-10-12T04:55:37.835Z,4.02
2022-10-12T04:58:05.646Z,4.06
2022-10-12T05:00:33.417Z,4.07
2022-10-12T05:03:01.256Z,4.16
2022-10-12T05:05:30.394Z,4.10
2022-10-12T05:07:58.353Z,4.06
2022-10-12T05:10:26.155Z,4.00
2022-10-12T05:12:54.014Z,3.93
2022-10-12T05:15:21.837Z,3.93
2022-10-12T05:17:49.652Z,3.93
2022-10-12T05:20:17.772Z,3.97
2022-10-12T05:22:46.956Z,3.92
2022-10-12T05:25:14.788Z,3.90
2022-10-12T05:27:42.721Z,3.86
2022-10-12T05:30:10.974Z,3.88
2022-10-12T05:32:39.356Z,3.85
2022-10-12T05:35:10.002Z,3.79
2022-10-12T05:37:38.129Z,3.80
2022-10-12T05:40:08.130Z,3.73
2022-10-12T05:42:36.300Z,3.67
2022-10-12T05:45:04.987Z,3.77
2022-10-12T05:47:32.813Z,3.65
2022-10-12T05:50:00.611Z,3.64
2022-10-12T05:52:28.409Z,3.67
2022-10-12T05:54:56.218Z,3.57
2022-10-12T05:57:25.588Z,3.59
2022-10-12T05:59:54.609Z,3.55
2022-10-12T06:02:22.486Z,3.45
2022-10-12T06:04:50.278Z,3.40
2022-10-12T06:07:18.131Z,3.42
2022-10-12T06:09:47.535Z,3.43
2022-10-12T06:12:16.233Z,3.43
2022-10-12T06:14:45.455Z,3.45
2022-10-12T06:17:13.414Z,3.39
2022-10-12T06:19:41.223Z,3.37
2022-10-12T06:22:09.345Z,3.38
2022-10-12T06:24:37.446Z,3.42
2022-10-12T06:27:05.252Z,3.57
2022-10-12T06:29:33.021Z,4.25
2022-10-12T06:32:02.165Z,5.18
2022-10-12T06:34:30.250Z,6.13
2022-10-12T06:37:01.826Z,5.96
2022-10-12T06:39:30.724Z,6.57
2022-10-12T06:41:58.959Z,8.03
2022-10-12T06:44:27.014Z,9.42
2022-10-12T06:46:54.827Z,10.36
2022-10-12T06:49:23.972Z,11.83
2022-10-12T06:51:52.017Z,13.03
2022-10-12T06:54:19.890Z,14.19
2022-10-12T06:56:49.214Z,14.12
2022-10-12T06:59:19.022Z,13.42
2022-10-12T07:01:46.950Z,11.80
2022-10-12T07:04:14.961Z,10.46
2022-10-12T07:06:44.325Z,9.47
2022-10-12T07:09:12.099Z,8.83
2022-10-12T07:11:39.904Z,9.45
2022-10-12T07:14:07.702Z,11.61
2022-10-12T07:16:35.694Z,12.99
2022-10-12T07:19:03.539Z,12.60
2022-10-12T07:21:31.386Z,11.56
2022-10-12T07:24:00.856Z,10.74
2022-10-12T07:26:28.690Z,11.55
2022-10-12T07:28:56.774Z,12.35
2022-10-12T07:31:24.795Z,15.51
2022-10-12T07:33:52.751Z,17.55
2022-10-12T07:36:21.932Z,18.24
2022-10-12T07:38:50.417Z,18.65
2022-10-12T07:41:24.627Z,19.11
2022-10-12T07:43:55.252Z,19.67
2022-10-12T07:46:23.275Z,20.37
2022-10-12T07:48:51.520Z,20.92
2022-10-12T07:51:19.771Z,21.00
2022-10-12T07:53:47.717Z,20.34
2022-10-12T07:56:18.492Z,20.16
2022-10-12T07:58:50.746Z,20.35
2022-10-12T08:01:19.749Z,20.90
2022-10-12T08:03:47.777Z,20.87
2022-10-12T08:06:16.105Z,21.62
2022-10-12T08:08:44.721Z,23.28
2022-10-12T08:11:12.822Z,25.50
2022-10-12T08:13:41.226Z,23.68
2022-10-12T08:16:11.448Z,22.06
2022-10-12T08:18:39.255Z,22.27
2022-10-12T08:21:07.423Z,21.44
2022-10-12T08:23:35.943Z,21.13
2022-10-12T08:26:04.250Z,22.28
2022-10-12T08:28:32.490Z,22.86
2022-10-12T08:31:00.291Z,21.84
2022-10-12T08:33:30.417Z,22.10
2022-10-12T08:35:58.153Z,21.08
2022-10-12T08:38:39.296Z,20.09
2022-10-12T08:41:19.932Z,20.27
2022-10-12T08:43:52.905Z,22.93
2022-10-12T08:46:21.952Z,23.15
2022-10-12T08:48:56.505Z,22.84
2022-10-12T08:51:25.646Z,22.71
2022-10-12T08:53:55.585Z,22.47
2022-10-12T08:56:23.452Z,23.20
2022-10-12T08:58:52.341Z,24.07
2022-10-12T09:01:25.403Z,25.77
2022-10-12T09:04:07.121Z,24.28
2022-10-12T09:06:40.817Z,24.25
2022-10-12T09:09:16.704Z,22.29
2022-10-12T09:11:55.753Z,22.04
2022-10-12T09:14:26.585Z,24.39
2022-10-12T09:16:56.308Z,26.21
2022-10-12T09:19:29.227Z,26.84
2022-10-12T09:21:58.029Z,28.74
2022-10-12T09:24:28.682Z,28.72
2022-10-12T09:26:58.914Z,28.29
2022-10-12T09:29:28.145Z,26.51
2022-10-12T09:32:13.566Z,27.30
2022-10-12T09:34:43.371Z,29.52
2022-10-12T09:37:15.871Z,31.50
2022-10-12T09:39:43.765Z,31.40
2022-10-12T09:42:11.785Z,25.25
2022-10-12T09:44:40.957Z,22.14
2022-10-12T09:47:24.254Z,25.21
2022-10-12T09:49:54.357Z,27.83
2022-10-12T09:52:23.781Z,27.59
2022-10-12T09:54:52.580Z,28.81
2022-10-12T09:57:21.660Z,28.79
2022-10-12T09:59:50.163Z,31.76
2022-10-12T10:02:19.378Z,30.10
2022-10-12T10:04:47.830Z,30.67
2022-10-12T10:07:22.753Z,32.68
2022-10-12T10:10:05.117Z,32.95
2022-10-12T10:12:33.053Z,32.32
2022-10-12T10:15:02.014Z,30.87
2022-10-12T10:17:31.937Z,30.05
2022-10-12T10:20:01.682Z,31.25
2022-10-12T10:22:31.401Z,31.22
2022-10-12T10:25:00.852Z,30.75
2022-10-12T10:27:30.639Z,30.13
2022-10-12T10:30:29.241Z,28.94
2022-10-12T10:33:08.433Z,30.57
2022-10-12T10:35:36.569Z,30.84
2022-10-12T10:38:07.358Z,31.57
2022-10-12T10:40:35.441Z,33.20
2022-10-12T10:43:04.734Z,31.69
2022-10-12T10:45:33.822Z,31.96
2022-10-12T10:48:07.627Z,31.49
2022-10-12T10:50:37.563Z,34.98
2022-10-12T10:53:09.089Z,35.34
2022-10-12T10:55:43.949Z,34.95
2022-10-12T10:58:17.390Z,36.41
2022-10-12T11:00:48.085Z,34.27
2022-10-12T11:05:57.324Z,35.09
2022-10-12T11:08:28.817Z,36.94
2022-10-12T11:10:58.756Z,35.30
2022-10-12T11:13:32.566Z,33.39
2022-10-12T11:16:04.591Z,33.58
2022-10-12T11:18:35.806Z,33.17
2022-10-12T11:21:05.723Z,28.67
2022-10-12T11:23:41.529Z,28.35
2022-10-12T11:26:13.148Z,31.12
2022-10-12T11:28:41.710Z,33.53
2022-10-12T11:31:18.247Z,35.40
2022-10-12T11:33:47.237Z,35.10
2022-10-12T11:36:19.346Z,35.24
2022-10-12T11:38:50.944Z,34.85
2022-10-12T11:41:36.557Z,33.92
2022-10-12T11:44:06.000Z,36.01
2022-10-12T11:46:36.981Z,37.23
2022-10-12T11:49:09.243Z,34.16
2022-10-12T11:51:37.145Z,33.30
2022-10-12T11:54:10.066Z,34.37
2022-10-12T11:56:41.212Z,30.59
2022-10-12T11:59:14.362Z,29.36
2022-10-12T12:01:48.093Z,26.14
2022-10-12T12:04:44.775Z,24.91
2022-10-12T12:07:33.506Z,24.64
2022-10-12T12:10:22.909Z,23.83
2022-10-12T12:13:07.990Z,24.65
2022-10-12T12:15:36.187Z,24.52
2022-10-12T12:18:12.323Z,24.26
2022-10-12T12:21:04.253Z,22.45
2022-10-12T12:23:36.988Z,22.71
2022-10-12T12:26:11.823Z,23.25
2022-10-12T12:28:43.895Z,23.98
2022-10-12T12:31:14.524Z,23.76
2022-10-12T12:37:21.700Z,26.24
2022-10-12T12:39:53.229Z,29.73
2022-10-12T12:42:26.203Z,31.74
2022-10-12T12:44:54.486Z,32.10
2022-10-12T12:47:44.613Z,31.56
2022-10-12T12:50:28.660Z,32.00
2022-10-12T12:53:00.737Z,28.82
2022-10-12T12:55:49.609Z,30.84
2022-10-12T12:58:28.338Z,30.98
2022-10-12T13:01:03.659Z,30.33
2022-10-12T13:03:49.053Z,30.75
2022-10-12T13:06:34.604Z,31.09
2022-10-12T13:09:20.771Z,31.45
2022-10-12T13:11:59.793Z,32.61
2022-10-12T13:14:36.016Z,26.61
2022-10-12T13:17:31.881Z,22.27
2022-10-12T13:19:58.504Z,20.77
2022-10-12T13:22:28.238Z,19.83
2022-10-12T13:25:00.011Z,20.08
2022-10-12T13:27:33.360Z,20.54
2022-10-12T13:30:05.805Z,19.58
2022-10-12T13:32:41.531Z,18.94
2022-10-12T13:35:13.951Z,18.70
2022-10-12T13:37:41.914Z,17.99
2022-10-12T13:40:24.531Z,17.92
2022-10-12T13:42:52.479Z,17.66
2022-10-12T13:45:21.650Z,17.68
2022-10-12T13:47:49.346Z,17.10
2022-10-12T13:50:18.042Z,17.58
2022-10-12T13:52:52.962Z,17.61
2022-10-12T13:55:24.976Z,18.56
2022-10-12T13:57:52.830Z,18.09
2022-10-12T14:00:25.026Z,17.70
2022-10-12T14:02:57.447Z,17.80
2022-10-12T14:05:27.009Z,18.24
2022-10-12T14:07:57.028Z,20.18
2022-10-12T14:10:27.249Z,21.16
2022-10-12T14:12:56.043Z,20.66
2022-10-12T14:15:26.990Z,19.60
2022-10-12T14:17:55.304Z,20.03
2022-10-12T14:20:28.837Z,21.13
2022-10-12T14:22:58.117Z,21.71
2022-10-12T14:25:27.041Z,21.03
2022-10-12T14:27:55.858Z,19.74
2022-10-12T14:30:26.135Z,18.81
2022-10-12T14:32:58.758Z,18.83
2022-10-12T14:35:28.305Z,18.84
2022-10-12T14:37:56.855Z,18.83
2022-10-12T14:40:32.641Z,18.71
2022-10-12T14:43:03.423Z,18.10
2022-10-12T14:45:33.140Z,18.20
2022-10-12T14:48:01.532Z,17.75
2022-10-12T14:50:30.246Z,17.59
2022-10-12T14:52:58.836Z,17.55
2022-10-12T14:55:27.597Z,17.26
2022-10-12T14:57:55.963Z,16.98
2022-10-12T15:00:24.941Z,16.98
2022-10-12T15:02:57.472Z,16.94
2022-10-12T15:05:28.882Z,16.77
2022-10-12T15:07:56.779Z,16.74
2022-10-12T15:10:24.753Z,16.37
2022-10-12T15:12:52.738Z,16.29
2022-10-12T15:15:29.838Z,16.02
2022-10-12T15:17:59.314Z,15.97
2022-10-12T15:20:27.420Z,15.82
2022-10-12T15:22:55.108Z,15.66
2022-10-12T15:25:24.750Z,15.57
2022-10-12T15:27:52.686Z,15.37
2022-10-12T15:30:20.753Z,15.20
2022-10-12T15:32:49.214Z,15.02
2022-10-12T15:35:20.110Z,14.96
2022-10-12T15:37:48.591Z,14.83
2022-10-12T15:40:16.726Z,14.71
2022-10-12T15:42:44.881Z,14.65
2022-10-12T15:45:17.059Z,14.60
2022-10-12T15:47:45.428Z,14.57
2022-10-12T15:50:13.207Z,14.51
2022-10-12T15:52:42.516Z,14.34
2022-10-12T15:55:17.563Z,14.29
2022-10-12T15:57:46.354Z,14.28
2022-10-12T16:00:15.443Z,14.23
2022-10-12T16:02:43.226Z,14.20
2022-10-12T16:05:21.334Z,14.13
2022-10-12T16:07:50.872Z,14.07
2022-10-12T16:10:19.585Z,13.97
2022-10-12T16:12:48.318Z,13.89
2022-10-12T16:15:17.146Z,13.85
2022-10-12T16:17:46.007Z,13.77
2022-10-12T16:20:13.730Z,13.71
2022-10-12T16:22:41.925Z,13.75
2022-10-12T16:25:12.086Z,13.65
2022-10-12T16:27:40.072Z,13.49
2022-10-12T16:30:10.365Z,13.38
2022-10-12T16:32:45.081Z,13.25
2022-10-12T16:35:17.631Z,13.15
2022-10-12T16:37:50.019Z,13.05
2022-10-12T16:40:26.026Z,12.95
2022-10-12T16:42:59.422Z,12.85
2022-10-12T16:45:33.516Z,12.79
2022-10-12T16:48:06.928Z,12.80
2022-10-12T16:50:41.499Z,12.72
2022-10-12T16:53:13.713Z,12.63
2022-10-12T16:55:49.016Z,12.55
2022-10-12T16:58:18.713Z,12.53
2022-10-12T17:00:46.594Z,12.43
2022-10-12T17:03:14.411Z,12.28
2022-10-12T17:05:42.372Z,12.13
2022-10-12T17:08:14.978Z,12.03
2022-10-12T17:10:45.512Z,11.95
2022-10-12T17:13:14.332Z,11.86
2022-10-12T17:15:42.482Z,11.73
2022-10-12T17:18:11.762Z,11.56
2022-10-12T17:20:39.580Z,11.36
2022-10-12T17:23:07.553Z,11.28
2022-10-12T17:25:35.323Z,11.12
2022-10-12T17:28:04.413Z,11.00
2022-10-12T17:30:52.105Z,10.97
2022-10-12T17:33:27.749Z,10.88
2022-10-12T17:35:55.535Z,10.81
2022-10-12T17:38:23.644Z,10.67
2022-10-12T17:40:51.979Z,10.67
2022-10-12T17:43:21.376Z,10.58
2022-10-12T17:45:49.292Z,10.60
2022-10-12T17:48:16.980Z,10.51
2022-10-12T17:50:44.678Z,10.43
2022-10-12T17:53:12.465Z,10.33
2022-10-12T17:55:48.931Z,10.27
2022-10-12T17:58:17.064Z,10.35
2022-10-12T18:00:46.351Z,10.29
2022-10-12T18:03:14.223Z,10.18
2022-10-12T18:05:41.986Z,10.17
2022-10-12T18:08:09.909Z,10.19
2022-10-12T18:10:40.197Z,10.13
2022-10-12T18:13:08.234Z,10.12
2022-10-12T18:15:35.923Z,10.11
2022-10-12T18:18:05.131Z,10.00
2022-10-12T18:20:33.594Z,9.97
2022-10-12T18:23:01.607Z,9.87
2022-10-12T18:25:29.664Z,9.83
2022-10-12T18:27:57.407Z,9.68
2022-10-12T18:30:25.142Z,9.65
2022-10-12T18:32:52.909Z,9.55
2022-10-12T18:35:22.109Z,9.51
2022-10-12T18:37:49.835Z,9.39
2022-10-12T18:40:17.701Z,9.26
2022-10-12T18:42:45.587Z,9.16
2022-10-12T18:45:13.377Z,9.03
2022-10-12T18:47:41.350Z,8.94
2022-10-12T18:50:09.811Z,8.90
2022-10-12T18:52:38.945Z,8.82
2022-10-12T18:55:07.094Z,8.71
2022-10-12T18:57:39.659Z,8.63
2022-10-12T19:00:09.293Z,8.87
2022-10-12T19:02:37.347Z,8.65
2022-10-12T19:05:08.041Z,8.57
2022-10-12T19:07:36.228Z,8.53
2022-10-12T19:10:06.958Z,8.56
2022-10-12T19:12:35.164Z,8.57
2022-10-12T19:15:02.890Z,8.59
2022-10-12T19:17:31.276Z,8.58
2022-10-12T19:19:59.513Z,8.59
2022-10-12T19:22:27.778Z,8.59
2022-10-12T19:24:55.445Z,8.58
2022-10-12T19:27:29.927Z,8.58
2022-10-12T19:29:57.646Z,8.47
2022-10-12T19:32:25.381Z,8.39
2022-10-12T19:34:53.183Z,8.29
2022-10-12T19:37:20.959Z,8.26
2022-10-12T19:39:49.108Z,8.20
2022-10-12T19:42:17.619Z,8.12
2022-10-12T19:44:47.164Z,8.06
2022-10-12T19:47:15.003Z,7.96
2022-10-12T19:49:45.445Z,7.92
2022-10-12T19:52:15.371Z,7.82
2022-10-12T19:54:45.586Z,7.75
2022-10-12T19:57:13.292Z,7.68
2022-10-12T19:59:40.998Z,7.61
2022-10-12T20:02:11.161Z,7.64
2022-10-12T20:04:39.154Z,7.59
2022-10-12T20:07:06.852Z,7.70
2022-10-12T20:09:34.708Z,7.88
2022-10-12T20:12:02.828Z,7.80
2022-10-12T20:14:30.768Z,7.73
2022-10-12T20:16:58.700Z,7.64
2022-10-12T20:19:27.845Z,7.61
2022-10-12T20:21:55.717Z,7.59
2022-10-12T20:24:23.436Z,7.51
2022-10-12T20:26:52.942Z,7.46
2022-10-12T20:29:20.678Z,7.44
2022-10-12T20:31:48.367Z,7.64
2022-10-12T20:34:16.054Z,7.71
2022-10-12T20:36:45.638Z,7.63
2022-10-12T20:39:13.526Z,7.68
2022-10-12T20:41:41.399Z,7.80
2022-10-12T20:44:10.175Z,7.83
2022-10-12T20:46:37.965Z,7.80
2022-10-12T20:49:06.032Z,7.86
2022-10-12T20:51:35.663Z,7.73
2022-10-12T20:54:06.367Z,7.57
2022-10-12T20:56:34.754Z,7.51
2022-10-12T20:59:02.688Z,7.42
2022-10-12T21:01:30.443Z,7.39
2022-10-12T21:03:58.328Z,7.37
2022-10-12T21:06:26.065Z,7.26
2022-10-12T21:08:54.819Z,7.15
2022-10-12T21:11:24.166Z,7.23
2022-10-12T21:13:52.034Z,7.15
2022-10-12T21:16:19.909Z,7.09
2022-10-12T21:18:47.851Z,7.12
2022-10-12T21:21:17.058Z,7.09
2022-10-12T21:23:45.602Z,7.10
2022-10-12T21:26:14.032Z,6.94
2022-10-12T21:28:43.580Z,7.02
2022-10-12T21:31:11.392Z,6.94
2022-10-12T21:33:39.778Z,6.95
2022-10-12T21:36:08.446Z,6.87
2022-10-12T21:38:36.221Z,6.83
2022-10-12T21:41:04.398Z,6.82
2022-10-12T21:43:32.184Z,6.81
2022-10-12T21:46:04.576Z,6.76
2022-10-12T21:48:33.058Z,6.71
2022-10-12T21:51:01.246Z,6.70
2022-10-12T21:53:29.198Z,6.71
2022-10-12T21:55:56.968Z,6.73
2022-10-12T21:58:24.767Z,6.71
2022-10-12T22:00:53.023Z,6.64
2022-10-12T22:03:22.681Z,6.68
2022-10-12T22:05:50.461Z,6.66
2022-10-12T22:08:18.186Z,6.71
2022-10-12T22:10:45.876Z,6.66
2022-10-12T22:13:13.745Z,6.66
2022-10-12T22:15:41.630Z,6.66
2022-10-12T22:18:09.436Z,6.65
2022-10-12T22:20:38.493Z,6.64
2022-10-12T22:23:06.567Z,6.58
2022-10-12T22:25:34.284Z,6.66
2022-10-12T22:28:02.584Z,6.70
2022-10-12T22:30:30.303Z,6.86
2022-10-12T22:32:58.085Z,7.01
2022-10-12T22:35:25.785Z,6.98
2022-10-12T22:37:54.836Z,6.91
2022-10-12T22:40:22.700Z,6.87
2022-10-12T22:42:50.399Z,6.86
2022-10-12T22:45:18.287Z,6.99
2022-10-12T22:47:46.110Z,7.10
2022-10-12T22:50:13.866Z,7.14
2022-10-12T22:52:41.811Z,7.33
2022-10-12T22:55:11.173Z,7.37
2022-10-12T22:57:38.889Z,7.50
2022-10-12T23:00:07.133Z,7.56
2022-10-12T23:02:34.875Z,7.73
2022-10-12T23:05:03.154Z,7.69
2022-10-12T23:07:30.891Z,7.72
2022-10-12T23:09:58.570Z,7.79
2022-10-12T23:12:27.750Z,7.78
2022-10-12T23:14:55.557Z,7.76
2022-10-12T23:17:23.388Z,7.72
2022-10-12T23:19:51.126Z,7.69
2022-10-12T23:22:19.180Z,7.65
2022-10-12T23:24:47.226Z,7.63
2022-10-12T23:27:15.128Z,7.59
2022-10-12T23:29:44.315Z,7.57
2022-10-12T23:32:12.069Z,7.62
2022-10-12T23:34:39.818Z,7.65
2022-10-12T23:37:07.922Z,7.70
2022-10-12T23:39:35.774Z,7.73
2022-10-12T23:42:03.608Z,7.75
2022-10-12T23:44:31.403Z,7.77
2022-10-12T23:47:00.426Z,7.82
2022-10-12T23:49:28.137Z,7.86
2022-10-12T23:51:55.873Z,7.97
2022-10-12T23:54:23.891Z,7.96
2022-10-12T23:56:51.652Z,7.98
2022-10-12T23:59:19.386Z,8.00
